sensor_id;sensor_type;location;lat;lon;timestamp;temperature;humidity
7814;DHT22;3952;48.364;16.022;2024-03-08T00:00:13;4.10;99.90
7814;DHT22;3952;48.364;16.022;2024-03-08T00:02:41;4.00;99.90
7814;DHT22;3952;48.364;16.022;2024-03-08T00:05:09;4.10;99.90
7814;DHT22;3952;48.364;16.022;2024-03-08T00:07:38;4.00;99.90
7814;DHT22;3952;48.364;16.022;2024-03-08T00:10:07;4.00;99.90
7814;DHT22;3952;48.364;16.022;2024-03-08T00:12:37;4.00;99.90
7814;DHT22;3952;48.364;16.022;2024-03-08T00:15:05;4.00;99.90
7814;DHT22;3952;48.364;16.022;2024-03-08T00:17:33;4.00;99.90
7814;DHT22;3952;48.364;16.022;2024-03-08T00:20:00;4.00;99.90
7814;DHT22;3952;48.364;16.022;2024-03-08T00:22:29;4.00;99.90
7814;DHT22;3952;48.364;16.022;2024-03-08T00:25:00;4.00;99.90
7814;DHT22;3952;48.364;16.022;2024-03-08T00:27:28;4.00;99.90
7814;DHT22;3952;48.364;16.022;2024-03-08T00:29:57;4.00;99.90
7814;DHT22;3952;48.364;16.022;2024-03-08T00:32:24;4.00;99.90
7814;DHT22;3952;48.364;16.022;2024-03-08T00:34:59;4.00;99.90
7814;DHT22;3952;48.364;16.022;2024-03-08T00:37:27;4.10;99.90
7814;DHT22;3952;48.364;16.022;2024-03-08T00:40:00;4.10;99.90
7814;DHT22;3952;48.364;16.022;2024-03-08T00:42:27;4.10;99.90
7814;DHT22;3952;48.364;16.022;2024-03-08T00:44:55;4.10;99.90
7814;DHT22;3952;48.364;16.022;2024-03-08T00:47:23;4.10;99.90
7814;DHT22;3952;48.364;16.022;2024-03-08T00:49:51;4.10;99.90
7814;DHT22;3952;48.364;16.022;2024-03-08T00:52:19;4.10;99.90
7814;DHT22;3952;48.364;16.022;2024-03-08T00:54:46;4.10;99.90
7814;DHT22;3952;48.364;16.022;2024-03-08T00:57:15;4.10;99.90
7814;DHT22;3952;48.364;16.022;2024-03-08T00:59:43;4.10;99.90
7814;DHT22;3952;48.364;16.022;2024-03-08T01:02:10;4.40;99.90
7814;DHT22;3952;48.364;16.022;2024-03-08T01:04:37;4.10;99.90
7814;DHT22;3952;48.364;16.022;2024-03-08T01:07:05;4.10;99.90
7814;DHT22;3952;48.364;16.022;2024-03-08T01:09:32;4.10;99.90
7814;DHT22;3952;48.364;16.022;2024-03-08T01:12:00;4.10;99.90
7814;DHT22;3952;48.364;16.022;2024-03-08T01:14:29;4.10;99.90
7814;DHT22;3952;48.364;16.022;2024-03-08T01:16:56;4.10;99.90
7814;DHT22;3952;48.364;16.022;2024-03-08T01:19:24;4.10;99.90
7814;DHT22;3952;48.364;16.022;2024-03-08T01:21:51;4.10;99.90
7814;DHT22;3952;48.364;16.022;2024-03-08T01:24:21;4.00;99.90
7814;DHT22;3952;48.364;16.022;2024-03-08T01:26:52;4.00;99.90
7814;DHT22;3952;48.364;16.022;2024-03-08T01:29:19;4.00;99.90
7814;DHT22;3952;48.364;16.022;2024-03-08T01:31:48;4.00;99.90
7814;DHT22;3952;48.364;16.022;2024-03-08T01:34:18;4.00;99.90
7814;DHT22;3952;48.364;16.022;2024-03-08T01:36:45;4.00;99.90
7814;DHT22;3952;48.364;16.022;2024-03-08T01:39:13;4.00;99.90
7814;DHT22;3952;48.364;16.022;2024-03-08T01:41:40;4.10;99.90
7814;DHT22;3952;48.364;16.022;2024-03-08T01:44:07;4.00;99.90
7814;DHT22;3952;48.364;16.022;2024-03-08T01:46:35;4.00;99.90
7814;DHT22;3952;48.364;16.022;2024-03-08T01:49:04;4.00;99.90
7814;DHT22;3952;48.364;16.022;2024-03-08T01:51:31;4.00;99.90
7814;DHT22;3952;48.364;16.022;2024-03-08T01:54:01;4.00;99.90
7814;DHT22;3952;48.364;16.022;2024-03-08T01:56:29;4.10;99.90
7814;DHT22;3952;48.364;16.022;2024-03-08T01:58:58;4.00;99.90
7814;DHT22;3952;48.364;16.022;2024-03-08T02:01:27;4.00;99.90
7814;DHT22;3952;48.364;16.022;2024-03-08T02:03:55;4.00;99.90
7814;DHT22;3952;48.364;16.022;2024-03-08T02:06:24;4.00;99.90
7814;DHT22;3952;48.364;16.022;2024-03-08T02:08:51;4.00;99.90
7814;DHT22;3952;48.364;16.022;2024-03-08T02:11:19;4.00;99.90
7814;DHT22;3952;48.364;16.022;2024-03-08T02:13:47;4.00;99.90
7814;DHT22;3952;48.364;16.022;2024-03-08T02:16:21;4.00;99.90
7814;DHT22;3952;48.364;16.022;2024-03-08T02:18:48;4.00;99.90
7814;DHT22;3952;48.364;16.022;2024-03-08T02:21:18;3.90;99.90
7814;DHT22;3952;48.364;16.022;2024-03-08T02:23:46;3.90;99.90
7814;DHT22;3952;48.364;16.022;2024-03-08T02:26:13;3.90;99.90
7814;DHT22;3952;48.364;16.022;2024-03-08T02:28:41;3.90;99.90
7814;DHT22;3952;48.364;16.022;2024-03-08T02:31:09;3.90;99.90
7814;DHT22;3952;48.364;16.022;2024-03-08T02:33:37;3.90;99.90
7814;DHT22;3952;48.364;16.022;2024-03-08T02:36:05;3.90;99.90
7814;DHT22;3952;48.364;16.022;2024-03-08T02:38:34;3.90;99.90
7814;DHT22;3952;48.364;16.022;2024-03-08T02:41:01;3.90;99.90
7814;DHT22;3952;48.364;16.022;2024-03-08T02:43:29;3.90;99.90
7814;DHT22;3952;48.364;16.022;2024-03-08T02:45:57;3.90;99.90
7814;DHT22;3952;48.364;16.022;2024-03-08T02:48:25;3.90;99.90
7814;DHT22;3952;48.364;16.022;2024-03-08T02:50:52;3.90;99.90
7814;DHT22;3952;48.364;16.022;2024-03-08T02:53:20;3.90;99.90
7814;DHT22;3952;48.364;16.022;2024-03-08T02:55:49;3.90;99.90
7814;DHT22;3952;48.364;16.022;2024-03-08T02:58:16;3.90;99.90
7814;DHT22;3952;48.364;16.022;2024-03-08T03:00:44;3.90;99.90
7814;DHT22;3952;48.364;16.022;2024-03-08T03:03:12;3.90;99.90
7814;DHT22;3952;48.364;16.022;2024-03-08T03:05:39;3.80;99.90
7814;DHT22;3952;48.364;16.022;2024-03-08T03:08:07;3.80;99.90
7814;DHT22;3952;48.364;16.022;2024-03-08T03:10:35;3.80;99.90
7814;DHT22;3952;48.364;16.022;2024-03-08T03:13:04;3.80;99.90
7814;DHT22;3952;48.364;16.022;2024-03-08T03:15:32;3.80;99.90
7814;DHT22;3952;48.364;16.022;2024-03-08T03:18:01;3.80;99.90
7814;DHT22;3952;48.364;16.022;2024-03-08T03:20:28;3.70;99.90
7814;DHT22;3952;48.364;16.022;2024-03-08T03:22:58;3.70;99.90
7814;DHT22;3952;48.364;16.022;2024-03-08T03:25:29;3.70;99.90
7814;DHT22;3952;48.364;16.022;2024-03-08T03:28:00;3.70;99.90
7814;DHT22;3952;48.364;16.022;2024-03-08T03:30:29;3.70;99.90
7814;DHT22;3952;48.364;16.022;2024-03-08T03:32:59;3.70;99.90
7814;DHT22;3952;48.364;16.022;2024-03-08T03:35:27;3.70;99.90
7814;DHT22;3952;48.364;16.022;2024-03-08T03:37:55;3.70;99.90
7814;DHT22;3952;48.364;16.022;2024-03-08T03:40:33;3.70;99.90
7814;DHT22;3952;48.364;16.022;2024-03-08T03:43:00;3.70;99.90
7814;DHT22;3952;48.364;16.022;2024-03-08T03:45:30;3.60;99.90
7814;DHT22;3952;48.364;16.022;2024-03-08T03:48:02;3.60;99.90
7814;DHT22;3952;48.364;16.022;2024-03-08T03:50:30;3.60;99.90
7814;DHT22;3952;48.364;16.022;2024-03-08T03:53:00;3.50;99.90
7814;DHT22;3952;48.364;16.022;2024-03-08T03:55:27;3.50;99.90
7814;DHT22;3952;48.364;16.022;2024-03-08T03:57:55;3.50;99.90
7814;DHT22;3952;48.364;16.022;2024-03-08T04:00:24;3.50;99.90
7814;DHT22;3952;48.364;16.022;2024-03-08T04:02:54;3.50;99.90
7814;DHT22;3952;48.364;16.022;2024-03-08T04:05:25;4.80;99.90
7814;DHT22;3952;48.364;16.022;2024-03-08T04:07:52;3.40;99.90
7814;DHT22;3952;48.364;16.022;2024-03-08T04:10:20;3.40;99.90
7814;DHT22;3952;48.364;16.022;2024-03-08T04:12:47;3.40;99.90
7814;DHT22;3952;48.364;16.022;2024-03-08T04:15:15;3.40;99.90
7814;DHT22;3952;48.364;16.022;2024-03-08T04:17:42;3.40;99.90
7814;DHT22;3952;48.364;16.022;2024-03-08T04:20:13;3.40;99.90
7814;DHT22;3952;48.364;16.022;2024-03-08T04:22:43;3.40;99.90
7814;DHT22;3952;48.364;16.022;2024-03-08T04:25:10;3.40;99.90
7814;DHT22;3952;48.364;16.022;2024-03-08T04:27:37;3.30;99.90
7814;DHT22;3952;48.364;16.022;2024-03-08T04:30:07;3.20;99.90
7814;DHT22;3952;48.364;16.022;2024-03-08T04:32:35;3.30;99.90
7814;DHT22;3952;48.364;16.022;2024-03-08T04:35:04;3.40;99.90
7814;DHT22;3952;48.364;16.022;2024-03-08T04:37:33;3.40;99.90
7814;DHT22;3952;48.364;16.022;2024-03-08T04:40:00;3.40;99.90
7814;DHT22;3952;48.364;16.022;2024-03-08T04:42:28;3.40;99.90
7814;DHT22;3952;48.364;16.022;2024-03-08T04:44:58;3.40;99.90
7814;DHT22;3952;48.364;16.022;2024-03-08T04:47:26;3.40;99.90
7814;DHT22;3952;48.364;16.022;2024-03-08T04:49:53;3.40;99.90
7814;DHT22;3952;48.364;16.022;2024-03-08T04:52:21;3.40;99.90
7814;DHT22;3952;48.364;16.022;2024-03-08T04:54:50;3.40;99.90
7814;DHT22;3952;48.364;16.022;2024-03-08T04:57:17;3.40;99.90
7814;DHT22;3952;48.364;16.022;2024-03-08T04:59:45;3.40;99.90
7814;DHT22;3952;48.364;16.022;2024-03-08T05:02:13;3.30;99.90
7814;DHT22;3952;48.364;16.022;2024-03-08T05:04:40;3.40;99.90
7814;DHT22;3952;48.364;16.022;2024-03-08T05:07:08;3.30;99.90
7814;DHT22;3952;48.364;16.022;2024-03-08T05:09:35;3.30;99.90
7814;DHT22;3952;48.364;16.022;2024-03-08T05:12:05;3.30;99.90
7814;DHT22;3952;48.364;16.022;2024-03-08T05:14:33;4.50;99.90
7814;DHT22;3952;48.364;16.022;2024-03-08T05:17:01;3.30;99.90
7814;DHT22;3952;48.364;16.022;2024-03-08T05:19:28;3.30;99.90
7814;DHT22;3952;48.364;16.022;2024-03-08T05:21:56;3.20;99.90
7814;DHT22;3952;48.364;16.022;2024-03-08T05:24:23;3.20;99.90
7814;DHT22;3952;48.364;16.022;2024-03-08T05:26:51;2.50;99.90
7814;DHT22;3952;48.364;16.022;2024-03-08T05:29:19;3.20;99.90
7814;DHT22;3952;48.364;16.022;2024-03-08T05:31:48;3.20;99.90
7814;DHT22;3952;48.364;16.022;2024-03-08T05:34:16;3.20;99.90
7814;DHT22;3952;48.364;16.022;2024-03-08T05:36:45;3.20;99.90
7814;DHT22;3952;48.364;16.022;2024-03-08T05:39:13;1.90;99.90
7814;DHT22;3952;48.364;16.022;2024-03-08T05:41:40;3.20;99.90
7814;DHT22;3952;48.364;16.022;2024-03-08T05:44:08;2.80;99.90
7814;DHT22;3952;48.364;16.022;2024-03-08T05:46:37;3.20;99.90
7814;DHT22;3952;48.364;16.022;2024-03-08T05:49:04;3.20;99.90
7814;DHT22;3952;48.364;16.022;2024-03-08T05:51:32;3.30;99.90
7814;DHT22;3952;48.364;16.022;2024-03-08T05:54:01;3.30;99.90
7814;DHT22;3952;48.364;16.022;2024-03-08T05:56:29;3.30;99.90
7814;DHT22;3952;48.364;16.022;2024-03-08T05:58:57;3.30;99.90
7814;DHT22;3952;48.364;16.022;2024-03-08T06:01:25;4.70;99.90
7814;DHT22;3952;48.364;16.022;2024-03-08T06:03:54;3.30;99.90
7814;DHT22;3952;48.364;16.022;2024-03-08T06:06:23;3.30;99.90
7814;DHT22;3952;48.364;16.022;2024-03-08T06:08:51;3.30;99.90
7814;DHT22;3952;48.364;16.022;2024-03-08T06:11:22;3.30;99.90
7814;DHT22;3952;48.364;16.022;2024-03-08T06:13:52;3.30;99.90
7814;DHT22;3952;48.364;16.022;2024-03-08T06:16:25;3.40;99.90
7814;DHT22;3952;48.364;16.022;2024-03-08T06:18:56;3.30;99.90
7814;DHT22;3952;48.364;16.022;2024-03-08T06:21:24;3.30;99.90
7814;DHT22;3952;48.364;16.022;2024-03-08T06:23:52;3.40;99.90
7814;DHT22;3952;48.364;16.022;2024-03-08T06:26:20;3.40;99.90
7814;DHT22;3952;48.364;16.022;2024-03-08T06:28:48;3.40;99.90
7814;DHT22;3952;48.364;16.022;2024-03-08T06:31:16;3.40;99.90
7814;DHT22;3952;48.364;16.022;2024-03-08T06:33:44;3.50;99.90
7814;DHT22;3952;48.364;16.022;2024-03-08T06:36:12;3.50;99.90
7814;DHT22;3952;48.364;16.022;2024-03-08T06:38:45;3.50;99.90
7814;DHT22;3952;48.364;16.022;2024-03-08T06:41:12;3.50;99.90
7814;DHT22;3952;48.364;16.022;2024-03-08T06:43:42;3.50;99.90
7814;DHT22;3952;48.364;16.022;2024-03-08T06:46:09;3.50;99.90
7814;DHT22;3952;48.364;16.022;2024-03-08T06:48:41;3.50;99.90
7814;DHT22;3952;48.364;16.022;2024-03-08T06:51:09;3.50;99.90
7814;DHT22;3952;48.364;16.022;2024-03-08T06:53:38;3.50;99.90
7814;DHT22;3952;48.364;16.022;2024-03-08T06:56:05;3.60;99.90
7814;DHT22;3952;48.364;16.022;2024-03-08T06:58:33;5.30;99.90
7814;DHT22;3952;48.364;16.022;2024-03-08T07:01:01;3.60;99.90
7814;DHT22;3952;48.364;16.022;2024-03-08T07:03:30;3.60;99.90
7814;DHT22;3952;48.364;16.022;2024-03-08T07:05:58;3.60;99.90
7814;DHT22;3952;48.364;16.022;2024-03-08T07:08:25;3.70;99.90
7814;DHT22;3952;48.364;16.022;2024-03-08T07:10:54;3.70;99.90
7814;DHT22;3952;48.364;16.022;2024-03-08T07:13:24;3.70;99.90
7814;DHT22;3952;48.364;16.022;2024-03-08T07:15:51;3.70;99.90
7814;DHT22;3952;48.364;16.022;2024-03-08T07:18:19;3.80;99.90
7814;DHT22;3952;48.364;16.022;2024-03-08T07:20:48;3.80;99.90
7814;DHT22;3952;48.364;16.022;2024-03-08T07:23:16;3.80;99.90
7814;DHT22;3952;48.364;16.022;2024-03-08T07:26:05;3.80;99.90
7814;DHT22;3952;48.364;16.022;2024-03-08T07:28:32;3.80;99.90
7814;DHT22;3952;48.364;16.022;2024-03-08T07:31:00;3.80;99.90
7814;DHT22;3952;48.364;16.022;2024-03-08T07:33:43;3.80;99.90
7814;DHT22;3952;48.364;16.022;2024-03-08T07:36:10;3.90;99.90
7814;DHT22;3952;48.364;16.022;2024-03-08T07:38:37;3.90;99.90
7814;DHT22;3952;48.364;16.022;2024-03-08T07:41:06;3.90;99.90
7814;DHT22;3952;48.364;16.022;2024-03-08T07:43:34;3.90;99.90
7814;DHT22;3952;48.364;16.022;2024-03-08T07:46:02;4.00;99.90
7814;DHT22;3952;48.364;16.022;2024-03-08T07:48:30;4.10;99.90
7814;DHT22;3952;48.364;16.022;2024-03-08T07:50:58;4.10;99.90
7814;DHT22;3952;48.364;16.022;2024-03-08T07:53:25;4.10;99.90
7814;DHT22;3952;48.364;16.022;2024-03-08T07:55:53;4.20;99.90
7814;DHT22;3952;48.364;16.022;2024-03-08T07:58:21;4.20;99.90
7814;DHT22;3952;48.364;16.022;2024-03-08T08:00:49;4.30;99.90
7814;DHT22;3952;48.364;16.022;2024-03-08T08:03:16;4.30;99.90
7814;DHT22;3952;48.364;16.022;2024-03-08T08:05:46;4.30;99.90
7814;DHT22;3952;48.364;16.022;2024-03-08T08:08:15;4.30;99.90
7814;DHT22;3952;48.364;16.022;2024-03-08T08:10:42;4.40;99.90
7814;DHT22;3952;48.364;16.022;2024-03-08T08:13:09;4.40;99.90
7814;DHT22;3952;48.364;16.022;2024-03-08T08:15:38;4.50;99.90
7814;DHT22;3952;48.364;16.022;2024-03-08T08:18:06;4.60;99.90
7814;DHT22;3952;48.364;16.022;2024-03-08T08:20:35;4.60;99.90
7814;DHT22;3952;48.364;16.022;2024-03-08T08:23:03;4.70;99.90
7814;DHT22;3952;48.364;16.022;2024-03-08T08:25:31;4.70;99.90
7814;DHT22;3952;48.364;16.022;2024-03-08T08:28:00;4.70;99.90
7814;DHT22;3952;48.364;16.022;2024-03-08T08:30:29;4.70;99.90
7814;DHT22;3952;48.364;16.022;2024-03-08T08:33:00;4.70;99.90
7814;DHT22;3952;48.364;16.022;2024-03-08T08:35:28;4.70;99.90
7814;DHT22;3952;48.364;16.022;2024-03-08T08:37:55;4.80;99.90
7814;DHT22;3952;48.364;16.022;2024-03-08T08:40:24;4.90;99.90
7814;DHT22;3952;48.364;16.022;2024-03-08T08:42:52;4.90;99.90
7814;DHT22;3952;48.364;16.022;2024-03-08T08:45:19;5.00;99.90
7814;DHT22;3952;48.364;16.022;2024-03-08T08:47:47;5.00;99.90
7814;DHT22;3952;48.364;16.022;2024-03-08T08:50:16;4.90;99.90
7814;DHT22;3952;48.364;16.022;2024-03-08T08:52:49;5.00;99.90
7814;DHT22;3952;48.364;16.022;2024-03-08T08:55:16;5.00;99.90
7814;DHT22;3952;48.364;16.022;2024-03-08T08:57:47;5.00;99.90
7814;DHT22;3952;48.364;16.022;2024-03-08T09:00:15;5.00;99.90
7814;DHT22;3952;48.364;16.022;2024-03-08T09:02:42;5.00;99.90
7814;DHT22;3952;48.364;16.022;2024-03-08T09:05:10;5.00;99.90
7814;DHT22;3952;48.364;16.022;2024-03-08T09:07:39;5.10;99.90
7814;DHT22;3952;48.364;16.022;2024-03-08T09:10:07;5.10;99.90
7814;DHT22;3952;48.364;16.022;2024-03-08T09:12:35;5.20;99.90
7814;DHT22;3952;48.364;16.022;2024-03-08T09:15:03;5.30;99.90
7814;DHT22;3952;48.364;16.022;2024-03-08T09:17:31;5.40;99.90
7814;DHT22;3952;48.364;16.022;2024-03-08T09:19:59;5.40;99.90
7814;DHT22;3952;48.364;16.022;2024-03-08T09:22:26;5.50;99.90
7814;DHT22;3952;48.364;16.022;2024-03-08T09:24:55;5.50;99.90
7814;DHT22;3952;48.364;16.022;2024-03-08T09:27:23;5.60;99.90
7814;DHT22;3952;48.364;16.022;2024-03-08T09:29:50;5.70;99.90
7814;DHT22;3952;48.364;16.022;2024-03-08T09:32:17;5.70;99.90
7814;DHT22;3952;48.364;16.022;2024-03-08T09:34:45;5.70;99.90
7814;DHT22;3952;48.364;16.022;2024-03-08T09:37:12;5.70;99.90
7814;DHT22;3952;48.364;16.022;2024-03-08T09:39:39;5.70;99.90
7814;DHT22;3952;48.364;16.022;2024-03-08T09:42:08;5.70;99.90
7814;DHT22;3952;48.364;16.022;2024-03-08T09:44:37;5.70;99.90
7814;DHT22;3952;48.364;16.022;2024-03-08T09:47:05;5.70;99.90
7814;DHT22;3952;48.364;16.022;2024-03-08T09:49:33;5.80;99.90
7814;DHT22;3952;48.364;16.022;2024-03-08T09:52:01;5.70;99.90
7814;DHT22;3952;48.364;16.022;2024-03-08T09:54:30;5.70;99.90
7814;DHT22;3952;48.364;16.022;2024-03-08T09:56:58;5.80;99.90
7814;DHT22;3952;48.364;16.022;2024-03-08T09:59:29;5.70;99.90
7814;DHT22;3952;48.364;16.022;2024-03-08T10:02:17;5.70;99.90
7814;DHT22;3952;48.364;16.022;2024-03-08T10:04:44;5.60;99.90
7814;DHT22;3952;48.364;16.022;2024-03-08T10:07:13;5.70;99.90
7814;DHT22;3952;48.364;16.022;2024-03-08T10:09:40;5.70;99.90
7814;DHT22;3952;48.364;16.022;2024-03-08T10:12:13;5.80;99.90
7814;DHT22;3952;48.364;16.022;2024-03-08T10:14:42;5.80;99.90
7814;DHT22;3952;48.364;16.022;2024-03-08T10:17:10;5.90;99.90
7814;DHT22;3952;48.364;16.022;2024-03-08T10:19:37;5.90;99.90
7814;DHT22;3952;48.364;16.022;2024-03-08T10:22:05;5.90;99.90
7814;DHT22;3952;48.364;16.022;2024-03-08T10:24:33;5.80;99.90
7814;DHT22;3952;48.364;16.022;2024-03-08T10:27:01;5.80;99.90
7814;DHT22;3952;48.364;16.022;2024-03-08T10:29:31;5.90;99.90
7814;DHT22;3952;48.364;16.022;2024-03-08T10:32:02;6.00;99.90
7814;DHT22;3952;48.364;16.022;2024-03-08T10:34:31;6.00;99.90
7814;DHT22;3952;48.364;16.022;2024-03-08T10:37:03;6.10;99.90
7814;DHT22;3952;48.364;16.022;2024-03-08T10:39:35;6.10;99.90
7814;DHT22;3952;48.364;16.022;2024-03-08T10:42:04;6.30;99.90
7814;DHT22;3952;48.364;16.022;2024-03-08T10:44:48;6.40;99.90
7814;DHT22;3952;48.364;16.022;2024-03-08T10:47:26;6.40;99.90
7814;DHT22;3952;48.364;16.022;2024-03-08T10:50:06;6.40;99.90
7814;DHT22;3952;48.364;16.022;2024-03-08T10:52:38;6.40;99.90
7814;DHT22;3952;48.364;16.022;2024-03-08T10:55:07;6.50;99.90
7814;DHT22;3952;48.364;16.022;2024-03-08T10:57:38;6.70;99.90
7814;DHT22;3952;48.364;16.022;2024-03-08T11:00:08;7.00;99.90
7814;DHT22;3952;48.364;16.022;2024-03-08T11:02:39;7.20;99.90
7814;DHT22;3952;48.364;16.022;2024-03-08T11:05:11;7.30;99.90
7814;DHT22;3952;48.364;16.022;2024-03-08T11:07:43;7.10;99.90
7814;DHT22;3952;48.364;16.022;2024-03-08T11:10:19;7.10;99.90
7814;DHT22;3952;48.364;16.022;2024-03-08T11:12:47;7.40;99.90
7814;DHT22;3952;48.364;16.022;2024-03-08T11:15:15;7.10;99.90
7814;DHT22;3952;48.364;16.022;2024-03-08T11:17:49;7.10;99.90
7814;DHT22;3952;48.364;16.022;2024-03-08T11:20:18;7.10;99.90
7814;DHT22;3952;48.364;16.022;2024-03-08T11:22:50;6.20;99.90
7814;DHT22;3952;48.364;16.022;2024-03-08T11:25:37;7.10;99.90
7814;DHT22;3952;48.364;16.022;2024-03-08T11:28:12;7.00;99.90
7814;DHT22;3952;48.364;16.022;2024-03-08T11:31:05;7.00;99.90
7814;DHT22;3952;48.364;16.022;2024-03-08T11:33:40;7.00;99.90
7814;DHT22;3952;48.364;16.022;2024-03-08T11:36:11;7.10;99.90
7814;DHT22;3952;48.364;16.022;2024-03-08T11:38:42;7.00;99.90
7814;DHT22;3952;48.364;16.022;2024-03-08T11:41:10;5.50;99.90
7814;DHT22;3952;48.364;16.022;2024-03-08T11:43:40;7.10;99.90
7814;DHT22;3952;48.364;16.022;2024-03-08T11:46:08;7.30;99.90
7814;DHT22;3952;48.364;16.022;2024-03-08T11:48:37;7.30;99.90
7814;DHT22;3952;48.364;16.022;2024-03-08T11:51:04;7.20;99.90
7814;DHT22;3952;48.364;16.022;2024-03-08T11:53:32;7.60;99.90
7814;DHT22;3952;48.364;16.022;2024-03-08T11:56:07;7.30;99.90
7814;DHT22;3952;48.364;16.022;2024-03-08T11:58:35;7.30;99.90
7814;DHT22;3952;48.364;16.022;2024-03-08T12:01:04;7.30;99.90
7814;DHT22;3952;48.364;16.022;2024-03-08T12:03:33;7.30;99.90
7814;DHT22;3952;48.364;16.022;2024-03-08T12:06:02;7.40;99.90
7814;DHT22;3952;48.364;16.022;2024-03-08T12:08:30;7.50;99.90
7814;DHT22;3952;48.364;16.022;2024-03-08T12:10:58;7.40;99.90
7814;DHT22;3952;48.364;16.022;2024-03-08T12:13:26;7.30;99.90
7814;DHT22;3952;48.364;16.022;2024-03-08T12:15:56;7.30;99.90
7814;DHT22;3952;48.364;16.022;2024-03-08T12:18:25;7.20;99.90
7814;DHT22;3952;48.364;16.022;2024-03-08T12:20:54;7.20;99.90
7814;DHT22;3952;48.364;16.022;2024-03-08T12:23:34;7.10;99.90
7814;DHT22;3952;48.364;16.022;2024-03-08T12:26:12;7.10;99.90
7814;DHT22;3952;48.364;16.022;2024-03-08T12:28:40;8.00;99.90
7814;DHT22;3952;48.364;16.022;2024-03-08T12:31:08;7.40;99.90
7814;DHT22;3952;48.364;16.022;2024-03-08T12:33:37;7.50;99.90
7814;DHT22;3952;48.364;16.022;2024-03-08T12:36:20;7.50;99.90
7814;DHT22;3952;48.364;16.022;2024-03-08T12:38:49;7.60;99.90
7814;DHT22;3952;48.364;16.022;2024-03-08T12:41:17;7.60;99.90
7814;DHT22;3952;48.364;16.022;2024-03-08T12:43:45;7.70;99.90
7814;DHT22;3952;48.364;16.022;2024-03-08T12:46:14;7.70;99.90
7814;DHT22;3952;48.364;16.022;2024-03-08T12:48:42;7.70;99.90
7814;DHT22;3952;48.364;16.022;2024-03-08T12:51:12;7.90;99.90
7814;DHT22;3952;48.364;16.022;2024-03-08T12:53:41;8.00;99.90
7814;DHT22;3952;48.364;16.022;2024-03-08T12:56:11;8.00;99.90
7814;DHT22;3952;48.364;16.022;2024-03-08T12:58:39;8.00;99.90
7814;DHT22;3952;48.364;16.022;2024-03-08T13:01:06;8.10;99.90
7814;DHT22;3952;48.364;16.022;2024-03-08T13:03:34;8.30;99.90
7814;DHT22;3952;48.364;16.022;2024-03-08T13:06:03;8.50;99.90
7814;DHT22;3952;48.364;16.022;2024-03-08T13:08:31;8.70;99.90
7814;DHT22;3952;48.364;16.022;2024-03-08T13:11:01;8.90;99.90
7814;DHT22;3952;48.364;16.022;2024-03-08T13:13:30;9.00;99.90
7814;DHT22;3952;48.364;16.022;2024-03-08T13:16:01;9.00;99.90
7814;DHT22;3952;48.364;16.022;2024-03-08T13:18:28;9.00;99.90
7814;DHT22;3952;48.364;16.022;2024-03-08T13:20:55;8.90;99.90
7814;DHT22;3952;48.364;16.022;2024-03-08T13:23:23;8.90;99.90
7814;DHT22;3952;48.364;16.022;2024-03-08T13:25:50;8.90;99.90
7814;DHT22;3952;48.364;16.022;2024-03-08T13:28:18;8.90;99.90
7814;DHT22;3952;48.364;16.022;2024-03-08T13:30:55;9.00;99.90
7814;DHT22;3952;48.364;16.022;2024-03-08T13:33:23;8.90;99.90
7814;DHT22;3952;48.364;16.022;2024-03-08T13:35:51;9.10;99.90
7814;DHT22;3952;48.364;16.022;2024-03-08T13:38:18;9.10;99.90
7814;DHT22;3952;48.364;16.022;2024-03-08T13:40:46;9.10;99.90
7814;DHT22;3952;48.364;16.022;2024-03-08T13:43:14;9.10;99.90
7814;DHT22;3952;48.364;16.022;2024-03-08T13:45:42;9.00;99.90
7814;DHT22;3952;48.364;16.022;2024-03-08T13:48:11;9.10;99.90
7814;DHT22;3952;48.364;16.022;2024-03-08T13:50:38;9.20;99.90
7814;DHT22;3952;48.364;16.022;2024-03-08T13:53:06;9.30;99.90
7814;DHT22;3952;48.364;16.022;2024-03-08T13:55:35;9.40;99.90
7814;DHT22;3952;48.364;16.022;2024-03-08T13:58:03;9.40;99.90
7814;DHT22;3952;48.364;16.022;2024-03-08T14:00:35;9.40;99.90
7814;DHT22;3952;48.364;16.022;2024-03-08T14:03:02;9.50;99.90
7814;DHT22;3952;48.364;16.022;2024-03-08T14:05:32;9.50;99.90
7814;DHT22;3952;48.364;16.022;2024-03-08T14:08:01;9.40;99.90
7814;DHT22;3952;48.364;16.022;2024-03-08T14:10:29;9.40;99.90
7814;DHT22;3952;48.364;16.022;2024-03-08T14:12:57;9.40;99.90
7814;DHT22;3952;48.364;16.022;2024-03-08T14:15:24;9.40;99.90
7814;DHT22;3952;48.364;16.022;2024-03-08T14:17:55;9.10;99.90
7814;DHT22;3952;48.364;16.022;2024-03-08T14:20:24;9.20;99.90
7814;DHT22;3952;48.364;16.022;2024-03-08T14:22:53;9.10;99.90
7814;DHT22;3952;48.364;16.022;2024-03-08T14:25:21;9.00;99.90
7814;DHT22;3952;48.364;16.022;2024-03-08T14:27:50;8.90;99.90
7814;DHT22;3952;48.364;16.022;2024-03-08T14:30:19;9.00;99.90
7814;DHT22;3952;48.364;16.022;2024-03-08T14:33:00;9.10;99.90
7814;DHT22;3952;48.364;16.022;2024-03-08T14:35:28;9.10;99.90
7814;DHT22;3952;48.364;16.022;2024-03-08T14:37:57;9.00;99.90
7814;DHT22;3952;48.364;16.022;2024-03-08T14:40:26;9.00;99.90
7814;DHT22;3952;48.364;16.022;2024-03-08T14:42:53;9.10;99.90
7814;DHT22;3952;48.364;16.022;2024-03-08T14:45:22;9.70;99.90
7814;DHT22;3952;48.364;16.022;2024-03-08T14:47:50;9.10;99.90
7814;DHT22;3952;48.364;16.022;2024-03-08T14:50:18;9.10;99.90
7814;DHT22;3952;48.364;16.022;2024-03-08T14:52:46;9.00;99.90
7814;DHT22;3952;48.364;16.022;2024-03-08T14:55:15;9.00;99.90
7814;DHT22;3952;48.364;16.022;2024-03-08T14:57:45;8.90;99.90
7814;DHT22;3952;48.364;16.022;2024-03-08T15:00:13;8.80;99.90
7814;DHT22;3952;48.364;16.022;2024-03-08T15:02:52;8.80;99.90
7814;DHT22;3952;48.364;16.022;2024-03-08T15:05:19;8.70;99.90
7814;DHT22;3952;48.364;16.022;2024-03-08T15:07:52;8.70;99.90
7814;DHT22;3952;48.364;16.022;2024-03-08T15:10:21;8.70;99.90
7814;DHT22;3952;48.364;16.022;2024-03-08T15:12:51;8.60;99.90
7814;DHT22;3952;48.364;16.022;2024-03-08T15:15:21;8.60;99.90
7814;DHT22;3952;48.364;16.022;2024-03-08T15:17:50;8.60;99.90
7814;DHT22;3952;48.364;16.022;2024-03-08T15:20:20;8.50;99.90
7814;DHT22;3952;48.364;16.022;2024-03-08T15:22:51;8.50;99.90
7814;DHT22;3952;48.364;16.022;2024-03-08T15:25:22;8.40;99.90
7814;DHT22;3952;48.364;16.022;2024-03-08T15:27:51;9.10;99.90
7814;DHT22;3952;48.364;16.022;2024-03-08T15:30:19;7.70;99.90
7814;DHT22;3952;48.364;16.022;2024-03-08T15:32:49;8.20;99.90
7814;DHT22;3952;48.364;16.022;2024-03-08T15:35:17;8.20;99.90
7814;DHT22;3952;48.364;16.022;2024-03-08T15:37:44;8.20;99.90
7814;DHT22;3952;48.364;16.022;2024-03-08T15:40:12;8.10;99.90
7814;DHT22;3952;48.364;16.022;2024-03-08T15:42:55;8.10;99.90
7814;DHT22;3952;48.364;16.022;2024-03-08T15:45:22;8.10;99.90
7814;DHT22;3952;48.364;16.022;2024-03-08T15:47:50;8.00;99.90
7814;DHT22;3952;48.364;16.022;2024-03-08T15:50:17;8.00;99.90
7814;DHT22;3952;48.364;16.022;2024-03-08T15:52:49;8.00;99.90
7814;DHT22;3952;48.364;16.022;2024-03-08T15:55:18;8.00;99.90
7814;DHT22;3952;48.364;16.022;2024-03-08T15:57:50;7.90;99.90
7814;DHT22;3952;48.364;16.022;2024-03-08T16:00:19;8.00;99.90
7814;DHT22;3952;48.364;16.022;2024-03-08T16:02:59;7.90;99.90
7814;DHT22;3952;48.364;16.022;2024-03-08T16:05:28;7.90;99.90
7814;DHT22;3952;48.364;16.022;2024-03-08T16:07:56;7.90;99.90
7814;DHT22;3952;48.364;16.022;2024-03-08T16:10:25;7.90;99.90
7814;DHT22;3952;48.364;16.022;2024-03-08T16:12:55;7.80;99.90